createdAt,value
2023-03-03T00:00:12.986Z,4.30
2023-03-03T00:02:40.309Z,4.30
2023-03-03T00:05:07.533Z,4.30
2023-03-03T00:07:34.563Z,4.30
2023-03-03T00:10:01.740Z,4.30
2023-03-03T00:12:30.123Z,4.20
2023-03-03T00:14:57.232Z,4.20
2023-03-03T00:17:25.834Z,4.20
2023-03-03T00:19:53.183Z,4.10
2023-03-03T00:22:30.889Z,4.20
2023-03-03T00:25:20.967Z,4.20
2023-03-03T00:27:47.790Z,4.20
2023-03-03T00:30:20.420Z,4.20
2023-03-03T00:32:47.534Z,4.10
2023-03-03T00:35:25.620Z,4.10
2023-03-03T00:38:02.962Z,4.10
2023-03-03T00:40:37.322Z,4.10
2023-03-03T00:43:15.955Z,4.00
2023-03-03T00:45:44.319Z,4.10
2023-03-03T00:48:17.695Z,4.10
2023-03-03T00:50:44.646Z,4.00
2023-03-03T00:53:12.686Z,4.00
2023-03-03T00:55:40.644Z,3.90
2023-03-03T00:58:07.636Z,3.90
2023-03-03T01:00:34.922Z,3.90
2023-03-03T01:03:04.087Z,4.00
2023-03-03T01:05:31.273Z,4.00
2023-03-03T01:07:58.314Z,4.00
2023-03-03T01:10:26.393Z,4.10
2023-03-03T01:12:53.428Z,4.10
2023-03-03T01:15:20.343Z,4.10
2023-03-03T01:17:47.185Z,4.00
2023-03-03T01:20:16.836Z,4.10
2023-03-03T01:22:45.459Z,4.00
2023-03-03T01:25:14.043Z,4.00
2023-03-03T01:27:41.039Z,4.00
2023-03-03T01:30:08.231Z,4.00
2023-03-03T01:32:35.336Z,3.90
2023-03-03T01:35:02.346Z,3.90
2023-03-03T01:37:29.328Z,3.80
2023-03-03T01:39:56.535Z,3.80
2023-03-03T01:42:25.818Z,3.80
2023-03-03T01:45:10.373Z,3.80
2023-03-03T01:47:37.241Z,3.80
2023-03-03T01:50:06.603Z,3.80
2023-03-03T01:52:35.565Z,3.80
2023-03-03T01:55:04.740Z,3.70
2023-03-03T01:57:33.425Z,3.70
2023-03-03T02:00:00.869Z,3.70
2023-03-03T02:02:28.648Z,3.70
2023-03-03T02:04:56.019Z,3.70
2023-03-03T02:07:23.376Z,3.70
2023-03-03T02:09:56.362Z,3.70
2023-03-03T02:12:26.473Z,3.50
2023-03-03T02:14:53.321Z,3.50
2023-03-03T02:17:20.337Z,3.50
2023-03-03T02:19:53.015Z,3.50
2023-03-03T02:22:24.013Z,3.50
2023-03-03T02:24:57.112Z,3.40
2023-03-03T02:27:24.292Z,3.40
2023-03-03T02:29:52.484Z,3.40
2023-03-03T02:32:19.414Z,3.40
2023-03-03T02:34:50.361Z,3.40
2023-03-03T02:37:17.747Z,3.30
2023-03-03T02:39:45.009Z,3.30
2023-03-03T02:42:17.884Z,3.30
2023-03-03T02:44:44.719Z,3.20
2023-03-03T02:47:11.598Z,3.20
2023-03-03T02:49:38.914Z,3.10
2023-03-03T02:52:07.419Z,3.10
2023-03-03T02:54:34.220Z,3.10
2023-03-03T02:57:01.107Z,3.10
2023-03-03T02:59:28.711Z,3.10
2023-03-03T03:01:55.691Z,3.10
2023-03-03T03:04:24.143Z,3.10
2023-03-03T03:06:51.970Z,3.10
2023-03-03T03:09:19.324Z,3.10
2023-03-03T03:11:46.318Z,3.10
2023-03-03T03:14:13.941Z,3.10
2023-03-03T03:16:41.113Z,3.00
2023-03-03T03:19:08.599Z,3.00
2023-03-03T03:21:35.603Z,3.00
2023-03-03T03:24:02.525Z,2.90
2023-03-03T03:26:29.419Z,2.90
2023-03-03T03:28:56.391Z,2.90
2023-03-03T03:31:23.373Z,2.90
2023-03-03T03:33:50.234Z,3.00
2023-03-03T03:36:17.466Z,3.00
2023-03-03T03:38:44.843Z,3.00
2023-03-03T03:41:12.210Z,3.10
2023-03-03T03:43:39.038Z,3.00
2023-03-03T03:46:06.253Z,3.00
2023-03-03T03:48:33.322Z,2.90
2023-03-03T03:51:00.457Z,2.80
2023-03-03T03:53:27.428Z,2.70
2023-03-03T03:55:54.401Z,2.70
2023-03-03T03:58:21.588Z,2.70
2023-03-03T04:00:48.736Z,2.70
2023-03-03T04:03:15.858Z,2.70
2023-03-03T04:05:43.447Z,2.70
2023-03-03T04:08:10.641Z,2.80
2023-03-03T04:10:37.781Z,2.80
2023-03-03T04:13:05.143Z,2.80
2023-03-03T04:15:32.569Z,2.80
2023-03-03T04:17:59.567Z,2.80
2023-03-03T04:20:26.686Z,2.90
2023-03-03T04:22:53.653Z,2.80
2023-03-03T04:25:20.610Z,2.80
2023-03-03T04:27:47.621Z,2.80
2023-03-03T04:30:15.387Z,2.80
2023-03-03T04:32:42.473Z,2.70
2023-03-03T04:35:09.693Z,2.70
2023-03-03T04:37:36.761Z,2.70
2023-03-03T04:40:04.909Z,2.70
2023-03-03T04:42:31.813Z,2.70
2023-03-03T04:44:58.683Z,2.80
2023-03-03T04:47:25.736Z,2.80
2023-03-03T04:49:52.963Z,2.80
2023-03-03T04:52:19.996Z,2.80
2023-03-03T04:54:46.878Z,2.80
2023-03-03T04:57:13.740Z,2.80
2023-03-03T04:59:40.661Z,2.90
2023-03-03T05:02:07.868Z,2.90
2023-03-03T05:04:35.142Z,2.90
2023-03-03T05:07:02.061Z,2.90
2023-03-03T05:09:28.960Z,2.90
2023-03-03T05:11:55.802Z,2.90
2023-03-03T05:14:22.794Z,2.90
2023-03-03T05:16:49.679Z,2.80
2023-03-03T05:19:16.638Z,2.80
2023-03-03T05:21:43.776Z,2.80
2023-03-03T05:24:11.813Z,2.90
2023-03-03T05:26:39.348Z,2.90
2023-03-03T05:29:06.873Z,2.80
2023-03-03T05:31:34.365Z,2.90
2023-03-03T05:34:01.415Z,2.90
2023-03-03T05:36:28.315Z,2.90
2023-03-03T05:38:55.553Z,2.90
2023-03-03T05:41:22.630Z,2.90
2023-03-03T05:43:49.567Z,2.90
2023-03-03T05:46:16.501Z,2.90
2023-03-03T05:48:43.425Z,2.90
2023-03-03T05:51:10.270Z,2.90
2023-03-03T05:53:37.536Z,2.90
2023-03-03T05:56:04.604Z,2.90
2023-03-03T05:58:31.579Z,2.80
2023-03-03T06:00:58.495Z,2.90
2023-03-03T06:03:25.466Z,2.80
2023-03-03T06:05:52.518Z,2.80
2023-03-03T06:08:19.420Z,2.70
2023-03-03T06:10:46.502Z,2.70
2023-03-03T06:13:14.942Z,2.60
2023-03-03T06:15:42.010Z,2.60
2023-03-03T06:18:09.022Z,2.60
2023-03-03T06:20:36.048Z,2.60
2023-03-03T06:23:02.877Z,2.60
2023-03-03T06:25:30.040Z,2.60
2023-03-03T06:27:56.945Z,2.50
2023-03-03T06:30:27.190Z,2.50
2023-03-03T06:32:54.565Z,2.50
2023-03-03T06:35:24.581Z,2.40
2023-03-03T06:37:51.764Z,2.40
2023-03-03T06:40:18.820Z,2.40
2023-03-03T06:42:45.890Z,2.40
2023-03-03T06:45:13.291Z,2.50
2023-03-03T06:47:40.321Z,2.60
2023-03-03T06:50:07.595Z,2.60
2023-03-03T06:52:34.873Z,2.60
2023-03-03T06:55:06.753Z,2.50
2023-03-03T06:57:33.798Z,2.50
2023-03-03T07:00:10.689Z,2.50
2023-03-03T07:02:37.607Z,2.60
2023-03-03T07:05:07.293Z,2.60
2023-03-03T07:07:34.216Z,2.50
2023-03-03T07:10:01.103Z,2.50
2023-03-03T07:12:30.355Z,2.50
2023-03-03T07:15:12.467Z,2.50
2023-03-03T07:17:50.501Z,2.50
2023-03-03T07:22:55.380Z,2.50
2023-03-03T07:25:35.843Z,2.60
2023-03-03T07:28:32.147Z,2.60
2023-03-03T07:30:59.095Z,2.60
2023-03-03T07:33:26.005Z,2.60
2023-03-03T07:35:54.912Z,2.60
2023-03-03T07:38:24.817Z,2.60
2023-03-03T07:40:56.046Z,2.60
2023-03-03T07:43:29.611Z,2.60
2023-03-03T07:46:20.112Z,2.70
2023-03-03T07:48:47.089Z,2.70
2023-03-03T07:51:17.560Z,2.80
2023-03-03T07:53:44.528Z,2.80
2023-03-03T07:56:34.316Z,2.80
2023-03-03T07:59:02.653Z,2.80
2023-03-03T08:01:35.530Z,2.90
2023-03-03T08:04:02.682Z,2.90
2023-03-03T08:06:36.155Z,2.90
2023-03-03T08:09:22.982Z,2.90
2023-03-03T08:12:00.174Z,3.00
2023-03-03T08:14:30.618Z,3.00
2023-03-03T08:17:00.497Z,3.10
2023-03-03T08:19:30.140Z,3.10
2023-03-03T08:22:00.946Z,3.20
2023-03-03T08:24:27.850Z,3.20
2023-03-03T08:26:54.867Z,3.20
2023-03-03T08:29:21.928Z,3.20
2023-03-03T08:31:49.344Z,3.30
2023-03-03T08:34:16.349Z,3.30
2023-03-03T08:36:43.333Z,3.30
2023-03-03T08:39:10.694Z,3.40
2023-03-03T08:41:37.637Z,3.40
2023-03-03T08:44:04.686Z,3.50
2023-03-03T08:46:31.619Z,3.50
2023-03-03T08:48:58.662Z,3.50
2023-03-03T08:51:26.991Z,3.60
2023-03-03T08:53:53.918Z,3.60
2023-03-03T08:56:21.018Z,3.60
2023-03-03T08:59:01.613Z,3.60
2023-03-03T09:01:29.552Z,3.70
2023-03-03T09:03:56.492Z,3.60
2023-03-03T09:06:23.676Z,3.70
2023-03-03T09:08:50.806Z,3.70
2023-03-03T09:11:22.240Z,3.70
2023-03-03T09:13:53.621Z,3.70
2023-03-03T09:16:22.543Z,3.70
2023-03-03T09:18:49.526Z,3.70
2023-03-03T09:21:23.872Z,3.70
2023-03-03T09:23:56.327Z,3.80
2023-03-03T09:26:42.106Z,3.70
2023-03-03T09:29:15.200Z,3.70
2023-03-03T09:31:46.680Z,3.80
2023-03-03T09:34:16.753Z,3.90
2023-03-03T09:36:43.734Z,3.90
2023-03-03T09:39:18.012Z,4.00
2023-03-03T09:41:51.005Z,4.10
2023-03-03T09:44:37.204Z,4.20
2023-03-03T09:47:04.199Z,4.20
2023-03-03T09:49:49.860Z,4.20
2023-03-03T09:52:35.706Z,4.20
2023-03-03T09:55:22.120Z,4.20
2023-03-03T09:58:10.874Z,4.30
2023-03-03T10:00:57.060Z,4.40
2023-03-03T10:03:40.532Z,4.30
2023-03-03T10:06:22.184Z,4.30
2023-03-03T10:08:52.399Z,4.20
2023-03-03T10:11:30.624Z,4.30
2023-03-03T10:14:16.411Z,4.30
2023-03-03T10:16:49.896Z,4.30
2023-03-03T10:19:35.688Z,4.50
2023-03-03T10:22:08.720Z,4.50
2023-03-03T10:24:49.855Z,4.60
2023-03-03T10:27:43.050Z,4.60
2023-03-03T10:30:09.943Z,4.80
2023-03-03T10:32:42.601Z,4.80
2023-03-03T10:35:16.259Z,4.90
2023-03-03T10:37:52.533Z,5.00
2023-03-03T10:40:28.759Z,5.00
2023-03-03T10:43:26.084Z,5.00
2023-03-03T10:45:58.982Z,5.10
2023-03-03T10:48:29.016Z,5.10
2023-03-03T10:51:04.754Z,5.10
2023-03-03T10:53:39.186Z,5.10
2023-03-03T10:56:16.062Z,5.10
2023-03-03T10:58:46.129Z,5.10
2023-03-03T11:01:25.174Z,5.20
2023-03-03T11:04:11.152Z,5.20
2023-03-03T11:06:38.513Z,5.30
2023-03-03T11:09:15.843Z,5.40
2023-03-03T11:11:45.720Z,5.50
2023-03-03T11:14:24.680Z,5.70
2023-03-03T11:17:04.426Z,5.80
2023-03-03T11:19:36.411Z,5.90
2023-03-03T11:22:14.298Z,6.00
2023-03-03T11:24:51.339Z,6.00
2023-03-03T11:27:32.865Z,6.00
2023-03-03T11:30:02.670Z,6.10
2023-03-03T11:32:37.995Z,6.20
2023-03-03T11:35:14.367Z,6.30
2023-03-03T11:37:45.826Z,6.40
2023-03-03T11:40:24.947Z,6.50
2023-03-03T11:42:59.163Z,6.40
2023-03-03T11:45:52.438Z,6.30
2023-03-03T11:48:39.643Z,6.50
2023-03-03T11:51:15.594Z,6.70
2023-03-03T11:53:49.714Z,6.60
2023-03-03T11:56:22.470Z,6.50
2023-03-03T11:58:53.092Z,6.40
2023-03-03T12:01:26.678Z,6.50
2023-03-03T12:04:02.503Z,6.50
2023-03-03T12:06:38.528Z,6.60
2023-03-03T12:09:19.763Z,6.60
2023-03-03T12:11:54.189Z,6.60
2023-03-03T12:14:27.145Z,6.70
2023-03-03T12:16:58.773Z,6.80
2023-03-03T12:19:31.973Z,6.90
2023-03-03T12:22:02.076Z,6.90
2023-03-03T12:24:28.917Z,6.90
2023-03-03T12:27:08.056Z,6.80
2023-03-03T12:29:38.075Z,6.90
2023-03-03T12:32:15.405Z,6.90
2023-03-03T12:34:46.423Z,7.00
2023-03-03T12:37:18.875Z,7.10
2023-03-03T12:39:48.989Z,7.30
2023-03-03T12:42:19.005Z,7.60
2023-03-03T12:44:48.925Z,7.80
2023-03-03T12:47:23.158Z,8.10
2023-03-03T12:50:01.198Z,8.30
2023-03-03T12:52:48.568Z,8.50
2023-03-03T12:55:18.416Z,8.60
2023-03-03T12:57:51.663Z,8.70
2023-03-03T13:00:18.715Z,8.60
2023-03-03T13:02:51.666Z,8.50
2023-03-03T13:05:30.814Z,8.50
2023-03-03T13:08:16.571Z,8.70
2023-03-03T13:10:49.834Z,8.90
2023-03-03T13:13:16.832Z,9.10
2023-03-03T13:15:55.400Z,9.30
2023-03-03T13:18:31.193Z,9.50
2023-03-03T13:21:16.920Z,9.50
2023-03-03T13:23:49.278Z,9.50
2023-03-03T13:26:19.229Z,9.50
2023-03-03T13:28:52.380Z,9.50
2023-03-03T13:31:20.890Z,9.70
2023-03-03T13:33:58.718Z,9.90
2023-03-03T13:36:31.744Z,10.20
2023-03-03T13:39:02.794Z,10.40
2023-03-03T13:41:41.227Z,10.50
2023-03-03T13:44:21.005Z,10.50
2023-03-03T13:46:48.476Z,10.60
2023-03-03T13:49:33.670Z,10.80
2023-03-03T13:52:00.573Z,11.00
2023-03-03T13:54:36.782Z,11.10
2023-03-03T13:57:20.126Z,11.00
2023-03-03T13:59:56.286Z,10.80
2023-03-03T14:02:43.657Z,11.00
2023-03-03T14:05:10.670Z,11.10
2023-03-03T14:08:07.587Z,11.10
2023-03-03T14:10:43.945Z,11.00
2023-03-03T14:13:20.005Z,10.90
2023-03-03T14:15:53.484Z,10.90
2023-03-03T14:18:39.211Z,11.10
2023-03-03T14:21:16.118Z,11.20
2023-03-03T14:24:12.444Z,11.30
2023-03-03T14:26:59.480Z,11.40
2023-03-03T14:29:26.338Z,11.50
2023-03-03T14:31:54.263Z,11.30
2023-03-03T14:34:24.353Z,11.40
2023-03-03T14:36:54.292Z,11.50
2023-03-03T14:39:31.401Z,11.60
2023-03-03T14:41:59.586Z,11.50
2023-03-03T14:44:28.983Z,11.50
2023-03-03T14:47:16.088Z,11.70
2023-03-03T14:49:43.078Z,11.70
2023-03-03T14:52:16.074Z,11.70
2023-03-03T14:54:46.226Z,11.60
2023-03-03T14:57:17.852Z,11.50
2023-03-03T15:00:17.083Z,11.40
2023-03-03T15:03:00.092Z,11.40
2023-03-03T15:05:28.343Z,11.60
2023-03-03T15:07:57.016Z,11.60
2023-03-03T15:10:31.240Z,11.40
2023-03-03T15:12:58.411Z,11.10
2023-03-03T15:15:27.121Z,11.00
2023-03-03T15:18:04.976Z,11.20
2023-03-03T15:20:53.109Z,11.20
2023-03-03T15:23:38.831Z,11.20
2023-03-03T15:26:24.381Z,11.30
2023-03-03T15:28:59.004Z,11.50
2023-03-03T15:31:32.844Z,11.50
2023-03-03T15:34:09.371Z,11.40
2023-03-03T15:36:36.227Z,11.10
2023-03-03T15:39:21.696Z,10.90
2023-03-03T15:41:59.497Z,10.80
2023-03-03T15:44:49.074Z,10.70
2023-03-03T15:47:22.084Z,10.70
2023-03-03T15:50:01.647Z,10.60
2023-03-03T15:52:48.736Z,10.60
2023-03-03T15:55:18.947Z,10.70
2023-03-03T15:58:04.433Z,10.80
2023-03-03T16:00:34.946Z,10.80
2023-03-03T16:03:13.969Z,10.70
2023-03-03T16:05:49.036Z,10.80
2023-03-03T16:08:28.358Z,11.10
2023-03-03T16:11:08.625Z,11.10
2023-03-03T16:13:41.225Z,11.10
2023-03-03T16:16:17.924Z,11.10
2023-03-03T16:18:44.777Z,11.00
2023-03-03T16:21:40.842Z,11.00
2023-03-03T16:24:16.788Z,10.80
2023-03-03T16:26:50.977Z,10.70
2023-03-03T16:29:24.518Z,10.60
2023-03-03T16:32:05.361Z,10.50
2023-03-03T16:34:47.960Z,10.30
2023-03-03T16:37:36.413Z,10.30
2023-03-03T16:40:03.636Z,10.20
2023-03-03T16:42:31.836Z,10.00
2023-03-03T16:44:58.987Z,9.90
2023-03-03T16:47:34.964Z,9.90
2023-03-03T16:50:14.608Z,10.10
2023-03-03T16:52:45.014Z,10.10
2023-03-03T16:55:20.247Z,10.20
2023-03-03T16:57:53.574Z,10.20
2023-03-03T17:00:22.742Z,10.20
2023-03-03T17:02:59.023Z,10.20
2023-03-03T17:05:44.611Z,10.20
2023-03-03T17:08:14.592Z,10.10
2023-03-03T17:10:41.537Z,10.10
2023-03-03T17:13:20.685Z,10.00
2023-03-03T17:15:57.032Z,9.90
2023-03-03T17:18:53.220Z,9.80
2023-03-03T17:21:25.425Z,9.70
2023-03-03T17:24:07.872Z,9.60
2023-03-03T17:26:34.809Z,9.60
2023-03-03T17:29:20.662Z,9.60
2023-03-03T17:31:54.192Z,9.50
2023-03-03T17:34:26.964Z,9.40
2023-03-03T17:36:56.978Z,9.30
2023-03-03T17:42:36.827Z,9.00
2023-03-03T17:45:14.540Z,9.00
2023-03-03T17:47:53.692Z,9.00
2023-03-03T17:50:23.804Z,8.90
2023-03-03T17:53:06.000Z,8.90
2023-03-03T17:55:35.792Z,8.90
2023-03-03T17:58:21.493Z,8.80
2023-03-03T18:01:00.621Z,8.70
2023-03-03T18:04:03.162Z,8.60
2023-03-03T18:06:30.096Z,8.60
2023-03-03T18:09:11.708Z,8.50
2023-03-03T18:11:40.100Z,8.50
2023-03-03T18:14:25.760Z,8.40
2023-03-03T18:16:54.572Z,8.40
2023-03-03T18:19:30.341Z,8.30
2023-03-03T18:22:16.232Z,8.30
2023-03-03T18:24:52.075Z,8.30
2023-03-03T18:27:25.094Z,8.20
2023-03-03T18:30:10.773Z,8.20
2023-03-03T18:33:01.550Z,8.20
2023-03-03T18:35:31.684Z,8.30
2023-03-03T18:38:17.557Z,8.20
2023-03-03T18:40:56.776Z,8.20
2023-03-03T18:43:42.930Z,8.20
2023-03-03T18:46:30.309Z,8.20
2023-03-03T18:48:57.261Z,8.10
2023-03-03T18:51:39.425Z,8.10
2023-03-03T18:54:12.670Z,8.00
2023-03-03T18:56:58.134Z,8.00
2023-03-03T18:59:31.607Z,8.00
2023-03-03T19:02:17.720Z,8.00
2023-03-03T19:04:55.684Z,8.00
2023-03-03T19:07:28.379Z,7.90
2023-03-03T19:09:57.679Z,7.90
2023-03-03T19:12:47.595Z,7.90
2023-03-03T19:15:29.781Z,7.80
2023-03-03T19:18:05.820Z,7.80
2023-03-03T19:20:59.564Z,7.80
2023-03-03T19:23:34.424Z,7.80
2023-03-03T19:26:20.256Z,7.80
2023-03-03T19:28:55.241Z,7.80
2023-03-03T19:31:27.697Z,7.70
2023-03-03T19:34:04.127Z,7.80
2023-03-03T19:36:31.201Z,7.70
2023-03-03T19:39:18.548Z,7.70
2023-03-03T19:41:48.621Z,7.70
2023-03-03T19:44:15.738Z,7.70
2023-03-03T19:46:42.704Z,7.60
2023-03-03T19:49:18.835Z,7.60
2023-03-03T19:51:45.666Z,7.60
2023-03-03T19:54:15.310Z,7.60
2023-03-03T19:56:44.267Z,7.60
2023-03-03T19:59:26.568Z,7.60
2023-03-03T20:01:58.316Z,7.60
2023-03-03T20:04:25.322Z,7.60
2023-03-03T20:06:52.223Z,7.60
2023-03-03T20:09:19.132Z,7.60
2023-03-03T20:12:04.606Z,7.60
2023-03-03T20:14:46.255Z,7.60
2023-03-03T20:17:13.277Z,7.50
2023-03-03T20:19:49.341Z,7.50
2023-03-03T20:22:19.253Z,7.50
2023-03-03T20:24:46.610Z,7.50
2023-03-03T20:27:22.666Z,7.40
2023-03-03T20:30:06.198Z,7.40
2023-03-03T20:32:53.756Z,7.30
2023-03-03T20:35:39.580Z,7.30
2023-03-03T20:38:09.534Z,7.30
2023-03-03T20:40:45.680Z,7.20
2023-03-03T20:43:34.550Z,7.20
2023-03-03T20:46:27.697Z,7.30
2023-03-03T20:49:04.894Z,7.40
2023-03-03T20:51:40.224Z,7.40
2023-03-03T20:54:13.544Z,7.50
2023-03-03T20:57:03.714Z,7.50
2023-03-03T20:59:32.302Z,7.50
2023-03-03T21:02:08.806Z,7.60
2023-03-03T21:04:36.559Z,7.50
2023-03-03T21:07:04.573Z,7.50
2023-03-03T21:09:35.946Z,7.60
2023-03-03T21:12:09.952Z,7.50
2023-03-03T21:14:37.110Z,7.50
2023-03-03T21:17:22.550Z,7.50
2023-03-03T21:19:49.633Z,7.50
2023-03-03T21:22:25.916Z,7.70
2023-03-03T21:24:57.727Z,7.90
2023-03-03T21:27:27.634Z,8.10
2023-03-03T21:30:10.233Z,8.20
2023-03-03T21:32:48.428Z,8.10
2023-03-03T21:35:17.062Z,8.30
2023-03-03T21:37:44.026Z,8.40
2023-03-03T21:40:16.178Z,8.50
2023-03-03T21:42:44.467Z,8.70
2023-03-03T21:45:12.808Z,8.70
2023-03-03T21:47:39.788Z,8.70
2023-03-03T21:50:07.095Z,8.80
2023-03-03T21:52:34.032Z,8.70
2023-03-03T21:55:01.080Z,8.70
2023-03-03T21:57:28.132Z,8.50
2023-03-03T21:59:55.178Z,8.40
2023-03-03T22:02:22.062Z,8.40
2023-03-03T22:04:49.133Z,8.40
2023-03-03T22:07:16.148Z,8.50
2023-03-03T22:09:43.066Z,8.50
2023-03-03T22:12:10.039Z,8.40
2023-03-03T22:14:36.976Z,8.50
2023-03-03T22:17:03.918Z,8.50
2023-03-03T22:19:31.598Z,8.50
2023-03-03T22:21:58.479Z,8.40
2023-03-03T22:24:25.592Z,8.30
2023-03-03T22:26:52.461Z,8.40
2023-03-03T22:29:23.154Z,8.30
2023-03-03T22:31:51.085Z,8.30
2023-03-03T22:34:20.626Z,8.40
2023-03-03T22:36:47.635Z,8.40
2023-03-03T22:39:14.590Z,8.40
2023-03-03T22:41:41.545Z,8.30
2023-03-03T22:44:08.475Z,8.40
2023-03-03T22:49:39.272Z,8.40
2023-03-03T22:52:06.375Z,8.40
2023-03-03T22:54:33.266Z,8.30
2023-03-03T22:57:00.211Z,8.30
2023-03-03T22:59:27.344Z,8.30
2023-03-03T23:01:54.192Z,8.30
2023-03-03T23:04:21.615Z,8.30
2023-03-03T23:06:50.042Z,8.30
2023-03-03T23:09:17.084Z,8.30
2023-03-03T23:11:43.987Z,8.30
2023-03-03T23:14:10.973Z,8.30
2023-03-03T23:16:37.970Z,8.20
2023-03-03T23:19:05.073Z,8.20
2023-03-03T23:21:32.267Z,8.10
2023-03-03T23:23:59.253Z,8.10
2023-03-03T23:26:26.355Z,8.10
2023-03-03T23:28:53.438Z,8.00
2023-03-03T23:31:20.413Z,8.10
2023-03-03T23:33:47.537Z,8.10
2023-03-03T23:36:14.508Z,8.20
2023-03-03T23:38:43.082Z,8.20
2023-03-03T23:41:10.212Z,8.00
2023-03-03T23:43:37.668Z,8.00
2023-03-03T23:46:04.678Z,7.90
2023-03-03T23:48:31.637Z,8.00
2023-03-03T23:50:58.805Z,8.10
2023-03-03T23:53:25.875Z,8.10
2023-03-03T23:55:52.749Z,8.10
2023-03-03T23:58:19.835Z,8.00
